Yiwu, China
Current Conditions -  °F | °C
As of 7:00 AM on Sunday 26 Oct 2014 (Local Time) from ZWWW Reporting Station
Clear Clear  
Wind Chill: 50°   Ceiling: Unl
Heat Index: 50°   Visibility: 4mi
Dew Point: 43°   Wind: 7mph
Humidity: 76%   Direction: 160°SSE
Pressure: 30.03"   Gusts: NA
Location:  43.27°N, 94.7°E
Report Text: ZWWW 252300Z 16003MPS 130V200 6000 NSC 10/06 Q1017 NOSIG
Loading
Personal Weather Stations






























Interactive Weather Map
Tropical Storm Tracking
New forecast layout! Learn more

10-Day Weather Forecast

Advertisements
Track Severe Weather on mobile